createdAt,value
2017-11-03T00:01:49.792Z,19.60
2017-11-03T00:04:18.180Z,19.60
2017-11-03T00:06:47.046Z,19.60
2017-11-03T00:09:17.101Z,19.60
2017-11-03T00:11:45.436Z,19.60
2017-11-03T00:14:13.965Z,19.60
2017-11-03T00:16:42.317Z,19.60
2017-11-03T00:19:10.625Z,19.60
2017-11-03T00:21:39.067Z,19.60
2017-11-03T00:24:07.991Z,19.60
2017-11-03T00:26:36.680Z,19.60
2017-11-03T00:29:06.422Z,19.50
2017-11-03T00:31:35.591Z,19.60
2017-11-03T00:34:03.971Z,19.50
2017-11-03T00:36:32.339Z,19.50
2017-11-03T00:39:00.805Z,19.60
2017-11-03T00:41:29.172Z,19.60
2017-11-03T00:43:58.365Z,19.60
2017-11-03T00:46:27.220Z,19.60
2017-11-03T00:48:56.322Z,19.60
2017-11-03T00:51:25.467Z,19.50
2017-11-03T00:53:54.054Z,19.50
2017-11-03T00:56:23.472Z,19.60
2017-11-03T00:58:51.959Z,19.50
2017-11-03T01:01:20.406Z,19.50
2017-11-03T01:03:48.780Z,19.50
2017-11-03T01:06:17.157Z,19.50
2017-11-03T01:08:45.673Z,19.50
2017-11-03T01:11:14.788Z,19.50
2017-11-03T01:13:43.116Z,19.50
2017-11-03T01:16:11.490Z,19.50
2017-11-03T01:18:39.856Z,19.50
2017-11-03T01:21:08.220Z,19.50
2017-11-03T01:23:37.479Z,19.50
2017-11-03T01:26:05.849Z,19.50
2017-11-03T01:28:34.174Z,19.50
2017-11-03T01:31:02.640Z,19.50
2017-11-03T01:33:30.998Z,19.50
2017-11-03T01:35:59.381Z,19.50
2017-11-03T01:38:28.381Z,19.40
2017-11-03T01:40:56.720Z,19.50
2017-11-03T01:43:25.265Z,19.50
2017-11-03T01:45:53.712Z,19.50
2017-11-03T01:48:22.065Z,19.50
2017-11-03T01:50:50.394Z,19.50
2017-11-03T01:53:19.074Z,19.50
2017-11-03T01:55:48.224Z,19.40
2017-11-03T01:58:17.627Z,19.40
2017-11-03T02:00:46.347Z,19.40
2017-11-03T02:03:14.759Z,19.50
2017-11-03T02:08:18.419Z,19.40
2017-11-03T02:10:46.931Z,19.50
2017-11-03T02:13:15.304Z,19.50
2017-11-03T02:15:43.396Z,19.50
2017-11-03T02:18:11.749Z,19.50
2017-11-03T02:20:40.161Z,19.50
2017-11-03T02:23:08.609Z,19.40
2017-11-03T02:25:37.350Z,19.40
2017-11-03T02:28:05.878Z,19.40
2017-11-03T02:30:34.353Z,19.40
2017-11-03T02:33:02.712Z,19.40
2017-11-03T02:35:31.808Z,19.40
2017-11-03T02:38:00.255Z,19.40
2017-11-03T02:40:28.687Z,19.40
2017-11-03T02:42:57.684Z,19.40
2017-11-03T02:45:26.261Z,19.40
2017-11-03T02:47:54.952Z,19.40
2017-11-03T02:50:23.286Z,19.40
2017-11-03T02:52:51.894Z,19.40
2017-11-03T02:55:20.247Z,19.40
2017-11-03T02:57:48.638Z,19.40
2017-11-03T03:00:17.985Z,19.40
2017-11-03T03:02:46.323Z,19.40
2017-11-03T03:05:14.723Z,19.40
2017-11-03T03:07:43.377Z,19.40
2017-11-03T03:10:12.328Z,19.40
2017-11-03T03:12:40.677Z,19.40
2017-11-03T03:15:10.115Z,19.40
2017-11-03T03:17:38.437Z,19.40
2017-11-03T03:20:06.838Z,19.40
2017-11-03T03:22:35.843Z,19.40
2017-11-03T03:25:04.339Z,19.40
2017-11-03T03:27:32.702Z,19.40
2017-11-03T03:30:01.047Z,19.40
2017-11-03T03:32:29.756Z,19.40
2017-11-03T03:34:58.141Z,19.40
2017-11-03T03:37:26.352Z,19.40
2017-11-03T03:39:54.667Z,19.40
2017-11-03T03:42:23.201Z,19.40
2017-11-03T03:44:51.536Z,19.40
2017-11-03T03:47:20.022Z,19.40
2017-11-03T03:49:48.426Z,19.40
2017-11-03T03:52:16.846Z,19.40
2017-11-03T03:54:45.322Z,19.40
2017-11-03T03:57:13.631Z,19.40
2017-11-03T03:59:41.974Z,19.40
2017-11-03T04:02:10.362Z,19.40
2017-11-03T04:04:39.488Z,19.40
2017-11-03T04:07:09.772Z,19.30
2017-11-03T04:09:39.596Z,19.40
2017-11-03T04:12:07.945Z,19.40
2017-11-03T04:14:36.326Z,19.40
2017-11-03T04:17:05.080Z,19.40
2017-11-03T04:19:33.468Z,19.40
2017-11-03T04:22:01.934Z,19.30
2017-11-03T04:24:30.464Z,19.30
2017-11-03T04:26:58.880Z,19.40
2017-11-03T04:29:28.000Z,19.40
2017-11-03T04:31:56.604Z,19.30
2017-11-03T04:34:24.544Z,19.40
2017-11-03T04:36:52.933Z,19.30
2017-11-03T04:39:21.288Z,19.30
2017-11-03T04:41:51.125Z,19.30
2017-11-03T04:44:19.806Z,19.30
2017-11-03T04:46:48.435Z,19.30
2017-11-03T04:49:16.954Z,19.30
2017-11-03T04:51:45.939Z,19.30
2017-11-03T04:54:15.144Z,19.40
2017-11-03T04:56:44.262Z,19.30
2017-11-03T04:59:12.678Z,19.40
2017-11-03T05:01:41.898Z,19.30
2017-11-03T05:04:10.242Z,19.30
2017-11-03T05:06:39.780Z,19.30
2017-11-03T05:09:08.872Z,19.30
2017-11-03T05:11:37.246Z,19.30
2017-11-03T05:14:06.369Z,19.30
2017-11-03T05:16:35.419Z,19.30
2017-11-03T05:19:03.868Z,19.30
2017-11-03T05:21:32.223Z,19.30
2017-11-03T05:24:00.608Z,19.30
2017-11-03T05:26:29.719Z,19.30
2017-11-03T05:28:57.881Z,19.30
2017-11-03T05:31:26.330Z,19.30
2017-11-03T05:33:54.628Z,19.30
2017-11-03T05:36:23.886Z,19.30
2017-11-03T05:38:52.310Z,19.30
2017-11-03T05:41:20.869Z,19.30
2017-11-03T05:43:49.202Z,19.30
2017-11-03T05:46:17.735Z,19.30
2017-11-03T05:48:46.162Z,19.30
2017-11-03T05:51:14.699Z,19.30
2017-11-03T05:53:43.930Z,19.30
2017-11-03T05:56:12.334Z,19.30
2017-11-03T05:58:40.692Z,19.30
2017-11-03T06:01:09.114Z,19.30
2017-11-03T06:03:37.957Z,19.30
2017-11-03T06:06:06.991Z,19.30
2017-11-03T06:08:35.199Z,19.30
2017-11-03T06:11:04.542Z,19.30
2017-11-03T06:13:33.650Z,19.30
2017-11-03T06:16:02.202Z,19.30
2017-11-03T06:18:30.387Z,19.30
2017-11-03T06:20:58.662Z,19.30
2017-11-03T06:23:27.617Z,19.30
2017-11-03T06:25:56.069Z,19.30
2017-11-03T06:28:24.563Z,19.30
2017-11-03T06:30:52.749Z,19.30
2017-11-03T06:33:21.105Z,19.30
2017-11-03T06:35:49.474Z,19.30
2017-11-03T06:38:17.854Z,19.30
2017-11-03T06:40:46.374Z,19.30
2017-11-03T06:43:14.831Z,19.30
2017-11-03T06:45:43.408Z,19.30
2017-11-03T06:48:12.504Z,19.30
2017-11-03T06:50:40.938Z,19.30
2017-11-03T06:53:09.356Z,19.20
2017-11-03T06:55:38.990Z,19.30
2017-11-03T06:58:07.380Z,19.30
2017-11-03T07:00:35.976Z,19.30
2017-11-03T07:03:04.413Z,19.30
2017-11-03T07:05:33.696Z,19.30
2017-11-03T07:08:02.118Z,19.30
2017-11-03T07:10:30.623Z,19.30
2017-11-03T07:12:58.954Z,19.30
2017-11-03T07:15:27.297Z,19.30
2017-11-03T07:17:56.456Z,19.30
2017-11-03T07:20:24.926Z,19.30
2017-11-03T07:22:53.292Z,19.30
2017-11-03T07:25:21.678Z,19.30
2017-11-03T07:27:50.137Z,19.30
2017-11-03T07:30:19.111Z,19.20
2017-11-03T07:32:48.381Z,19.30
2017-11-03T07:35:17.353Z,19.30
2017-11-03T07:37:45.889Z,19.30
2017-11-03T07:40:15.128Z,19.30
2017-11-03T07:42:45.401Z,19.30
2017-11-03T07:45:13.933Z,19.30
2017-11-03T07:47:42.310Z,19.30
2017-11-03T07:50:10.676Z,19.30
2017-11-03T07:55:15.055Z,19.30
2017-11-03T07:57:44.006Z,19.30
2017-11-03T08:00:12.398Z,19.30
2017-11-03T08:02:40.881Z,19.30
2017-11-03T08:05:09.287Z,19.30
2017-11-03T08:07:37.683Z,19.30
2017-11-03T08:10:06.784Z,19.30
2017-11-03T08:12:35.219Z,19.30
2017-11-03T08:15:03.707Z,19.30
2017-11-03T08:17:32.194Z,19.30
2017-11-03T08:20:00.868Z,19.30
2017-11-03T08:22:29.209Z,19.30
2017-11-03T08:24:57.786Z,19.30
2017-11-03T08:27:26.151Z,19.30
2017-11-03T08:29:54.600Z,19.30
2017-11-03T08:32:22.922Z,19.30
2017-11-03T08:34:51.281Z,19.30
2017-11-03T08:37:19.729Z,19.30
2017-11-03T08:39:48.082Z,19.30
2017-11-03T08:42:16.467Z,19.30
2017-11-03T08:44:44.831Z,19.30
2017-11-03T08:47:13.160Z,19.30
2017-11-03T08:49:41.533Z,19.30
2017-11-03T08:52:09.919Z,19.30
2017-11-03T08:54:38.233Z,19.30
2017-11-03T08:57:07.688Z,19.30
2017-11-03T08:59:37.790Z,19.30
2017-11-03T09:02:06.755Z,19.30
2017-11-03T09:04:35.142Z,19.30
2017-11-03T09:07:03.468Z,19.30
2017-11-03T09:09:31.837Z,19.30
2017-11-03T09:12:00.176Z,19.40
2017-11-03T09:14:28.016Z,19.30
2017-11-03T09:16:56.208Z,19.40
2017-11-03T09:19:24.538Z,19.30
2017-11-03T09:21:52.667Z,19.30
2017-11-03T09:24:21.209Z,19.40
2017-11-03T09:26:49.756Z,19.40
2017-11-03T09:29:18.787Z,19.40
2017-11-03T09:31:47.137Z,19.40
2017-11-03T09:34:15.531Z,19.50
2017-11-03T09:36:44.677Z,19.50
2017-11-03T09:39:13.026Z,19.50
2017-11-03T09:41:41.497Z,19.60
2017-11-03T09:44:09.825Z,19.60
2017-11-03T09:46:38.277Z,19.60
2017-11-03T09:49:06.727Z,19.60
2017-11-03T09:51:35.138Z,19.70
2017-11-03T09:54:04.312Z,19.60
2017-11-03T09:56:32.677Z,19.60
2017-11-03T09:59:01.030Z,19.60
2017-11-03T10:01:30.107Z,19.70
2017-11-03T10:03:58.462Z,19.70
2017-11-03T10:06:26.841Z,19.70
2017-11-03T10:08:55.250Z,19.70
2017-11-03T10:11:24.951Z,19.70
2017-11-03T10:13:53.397Z,19.70
2017-11-03T10:16:21.778Z,19.70
2017-11-03T10:18:50.143Z,19.70
2017-11-03T10:21:18.609Z,19.70
2017-11-03T10:23:47.087Z,19.70
2017-11-03T10:26:15.542Z,19.70
2017-11-03T10:28:43.968Z,19.80
2017-11-03T10:31:12.460Z,19.80
2017-11-03T10:33:40.825Z,19.80
2017-11-03T10:36:09.202Z,19.80
2017-11-03T10:38:37.621Z,19.80
2017-11-03T10:41:07.706Z,19.80
2017-11-03T10:43:36.082Z,19.80
2017-11-03T10:46:04.574Z,19.80
2017-11-03T10:48:33.278Z,19.80
2017-11-03T10:51:01.668Z,19.80
2017-11-03T10:53:30.335Z,19.80
2017-11-03T10:55:59.281Z,19.80
2017-11-03T10:58:28.082Z,19.80
2017-11-03T11:00:56.668Z,19.80
2017-11-03T11:03:25.068Z,19.80
2017-11-03T11:05:53.361Z,19.80
2017-11-03T11:08:21.803Z,19.80
2017-11-03T11:10:50.603Z,19.80
2017-11-03T11:13:19.474Z,19.80
2017-11-03T11:15:47.901Z,19.80
2017-11-03T11:18:16.345Z,19.80
2017-11-03T11:20:44.948Z,19.80
2017-11-03T11:23:14.869Z,19.80
2017-11-03T11:25:43.462Z,19.80
2017-11-03T11:28:11.805Z,19.80
2017-11-03T11:30:40.184Z,19.80
2017-11-03T11:33:08.676Z,19.80
2017-11-03T11:35:37.015Z,19.80
2017-11-03T11:38:05.577Z,19.80
2017-11-03T11:40:33.955Z,19.80
2017-11-03T11:43:03.876Z,19.80
2017-11-03T11:45:32.528Z,19.80
2017-11-03T11:48:01.689Z,19.80
2017-11-03T11:50:30.425Z,19.80
2017-11-03T11:52:59.000Z,19.80
2017-11-03T11:55:27.400Z,19.80
2017-11-03T12:00:30.613Z,19.80
2017-11-03T12:03:00.080Z,19.80
2017-11-03T12:05:28.571Z,19.80
2017-11-03T12:07:57.590Z,19.80
2017-11-03T12:10:26.211Z,19.80
2017-11-03T12:12:54.559Z,19.80
2017-11-03T12:15:22.935Z,19.80
2017-11-03T12:17:52.196Z,19.80
2017-11-03T12:20:20.887Z,19.80
2017-11-03T12:22:49.224Z,19.80
2017-11-03T12:25:17.572Z,19.80
2017-11-03T12:27:46.228Z,19.90
2017-11-03T12:30:14.577Z,19.90
2017-11-03T12:32:43.319Z,19.90
2017-11-03T12:35:11.702Z,19.90
2017-11-03T12:37:40.046Z,19.90
2017-11-03T12:40:09.396Z,19.90
2017-11-03T12:42:37.930Z,19.90
2017-11-03T12:45:06.313Z,19.90
2017-11-03T12:47:34.642Z,19.90
2017-11-03T12:50:03.806Z,19.90
2017-11-03T12:52:33.011Z,19.90
2017-11-03T12:55:02.218Z,19.90
2017-11-03T12:57:32.508Z,19.90
2017-11-03T13:00:00.826Z,19.80
2017-11-03T13:02:29.936Z,19.90
2017-11-03T13:04:58.345Z,19.80
2017-11-03T13:07:26.796Z,19.90
2017-11-03T13:09:55.237Z,19.90
2017-11-03T13:12:23.719Z,19.80
2017-11-03T13:14:52.088Z,19.80
2017-11-03T13:17:20.960Z,19.80
2017-11-03T13:19:49.461Z,19.90
2017-11-03T13:22:17.819Z,19.90
2017-11-03T13:24:46.200Z,19.90
2017-11-03T13:27:14.903Z,19.90
2017-11-03T13:29:43.198Z,19.90
2017-11-03T13:32:12.564Z,19.90
2017-11-03T13:34:41.844Z,19.90
2017-11-03T13:37:10.214Z,19.90
2017-11-03T13:39:38.599Z,19.90
2017-11-03T13:42:06.999Z,19.90
2017-11-03T13:44:35.603Z,19.90
2017-11-03T13:47:03.991Z,19.90
2017-11-03T13:49:32.359Z,19.90
2017-11-03T13:52:01.184Z,19.90
2017-11-03T13:54:30.289Z,19.90
2017-11-03T13:56:58.688Z,19.90
2017-11-03T13:59:27.096Z,19.90
2017-11-03T14:01:55.492Z,19.90
2017-11-03T14:04:25.457Z,20.00
2017-11-03T14:06:53.834Z,20.00
2017-11-03T14:09:22.966Z,19.90
2017-11-03T14:11:51.362Z,19.90
2017-11-03T14:14:19.666Z,19.90
2017-11-03T14:16:47.993Z,19.90
2017-11-03T14:19:16.414Z,19.90
2017-11-03T14:21:46.543Z,19.90
2017-11-03T14:24:14.895Z,19.90
2017-11-03T14:26:43.274Z,19.90
2017-11-03T14:29:13.945Z,19.90
2017-11-03T14:31:43.042Z,19.90
2017-11-03T14:34:12.302Z,19.90
2017-11-03T14:36:40.648Z,19.90
2017-11-03T14:39:09.193Z,19.90
2017-11-03T14:41:37.641Z,19.90
2017-11-03T14:44:06.583Z,19.90
2017-11-03T14:46:34.834Z,19.90
2017-11-03T14:49:03.146Z,19.90
2017-11-03T14:51:31.500Z,19.80
2017-11-03T14:53:59.829Z,19.80
2017-11-03T14:56:28.241Z,19.80
2017-11-03T14:58:56.587Z,19.80
2017-11-03T15:01:25.078Z,19.80
2017-11-03T15:03:53.501Z,19.80
2017-11-03T15:06:22.826Z,19.80
2017-11-03T15:08:51.933Z,19.70
2017-11-03T15:11:20.588Z,19.70
2017-11-03T15:13:48.895Z,19.70
2017-11-03T15:16:18.270Z,19.70
2017-11-03T15:18:46.817Z,19.70
2017-11-03T15:21:15.314Z,19.70
2017-11-03T15:23:43.669Z,19.70
2017-11-03T15:26:11.965Z,19.70
2017-11-03T15:28:40.326Z,19.70
2017-11-03T15:31:08.949Z,19.70
2017-11-03T15:33:37.445Z,19.60
2017-11-03T15:36:05.826Z,19.60
2017-11-03T15:38:34.195Z,19.60
2017-11-03T15:41:02.638Z,19.60
2017-11-03T15:43:31.047Z,19.60
2017-11-03T15:45:59.430Z,19.60
2017-11-03T15:48:27.843Z,19.60
2017-11-03T15:50:56.217Z,19.60
2017-11-03T15:53:24.663Z,19.60
2017-11-03T15:55:53.810Z,19.60
2017-11-03T15:58:22.122Z,19.60
2017-11-03T16:00:51.272Z,19.60
2017-11-03T16:03:19.930Z,19.60
2017-11-03T16:05:50.660Z,19.60
2017-11-03T16:08:19.061Z,19.60
2017-11-03T16:10:48.177Z,19.60
2017-11-03T16:13:16.545Z,19.60
2017-11-03T16:15:47.654Z,19.50
2017-11-03T16:18:16.007Z,19.60
2017-11-03T16:20:44.348Z,19.60
2017-11-03T16:23:12.659Z,19.60
2017-11-03T16:25:41.062Z,19.50
2017-11-03T16:28:09.366Z,19.50
2017-11-03T16:30:37.740Z,19.50
2017-11-03T16:33:06.122Z,19.50
2017-11-03T16:35:34.298Z,19.50
2017-11-03T16:38:03.456Z,19.50
2017-11-03T16:40:31.766Z,19.50
2017-11-03T16:43:00.077Z,19.50
2017-11-03T16:45:28.445Z,19.50
2017-11-03T16:47:56.815Z,19.50
2017-11-03T16:50:25.180Z,19.50
2017-11-03T16:52:54.455Z,19.50
2017-11-03T16:55:22.861Z,19.50
2017-11-03T16:57:51.327Z,19.50
2017-11-03T17:00:20.214Z,19.50
2017-11-03T17:02:48.666Z,19.50
2017-11-03T17:05:16.988Z,19.50
2017-11-03T17:07:46.109Z,19.50
2017-11-03T17:10:15.134Z,19.40
2017-11-03T17:12:43.537Z,19.40
2017-11-03T17:15:11.918Z,19.40
2017-11-03T17:17:40.090Z,19.40
2017-11-03T17:20:08.427Z,19.40
2017-11-03T17:22:36.593Z,19.40
2017-11-03T17:25:04.914Z,19.40
2017-11-03T17:27:33.281Z,19.40
2017-11-03T17:30:01.605Z,19.40
2017-11-03T17:32:29.937Z,19.40
2017-11-03T17:34:58.339Z,19.40
2017-11-03T17:37:26.692Z,19.40
2017-11-03T17:39:55.171Z,19.40
2017-11-03T17:42:23.585Z,19.40
2017-11-03T17:44:53.472Z,19.40
2017-11-03T17:47:21.816Z,19.40
2017-11-03T17:49:50.125Z,19.40
2017-11-03T17:52:18.614Z,19.40
2017-11-03T17:54:47.026Z,19.40
2017-11-03T17:57:15.357Z,19.40
2017-11-03T17:59:43.677Z,19.40
2017-11-03T18:02:12.797Z,19.40
2017-11-03T18:04:41.099Z,19.40
2017-11-03T18:07:09.452Z,19.40
2017-11-03T18:09:38.316Z,19.40
2017-11-03T18:12:06.669Z,19.40
2017-11-03T18:14:35.034Z,19.40
2017-11-03T18:17:03.574Z,19.40
2017-11-03T18:19:32.138Z,19.50
2017-11-03T18:22:02.322Z,19.50
2017-11-03T18:24:30.675Z,19.50
2017-11-03T18:26:59.045Z,19.50
2017-11-03T18:29:27.264Z,19.50
2017-11-03T18:31:55.615Z,19.50
2017-11-03T18:34:25.333Z,19.50
2017-11-03T18:36:53.758Z,19.60
2017-11-03T18:39:24.085Z,19.60
2017-11-03T18:41:52.455Z,19.50
2017-11-03T18:44:21.862Z,19.50
2017-11-03T18:46:50.785Z,19.50
2017-11-03T18:49:18.927Z,19.50
2017-11-03T18:51:47.306Z,19.50
2017-11-03T18:54:17.012Z,19.60
2017-11-03T18:56:45.949Z,19.50
2017-11-03T18:59:14.329Z,19.60
2017-11-03T19:01:42.695Z,19.50
2017-11-03T19:04:11.868Z,19.50
2017-11-03T19:06:40.859Z,19.50
2017-11-03T19:09:09.417Z,19.50
2017-11-03T19:11:37.865Z,19.50
2017-11-03T19:14:06.239Z,19.50
2017-11-03T19:16:34.814Z,19.50
2017-11-03T19:19:03.185Z,19.50
2017-11-03T19:21:31.532Z,19.50
2017-11-03T19:23:59.791Z,19.50
2017-11-03T19:26:28.164Z,19.50
2017-11-03T19:28:56.642Z,19.50
2017-11-03T19:31:25.031Z,19.50
2017-11-03T19:33:53.360Z,19.50
2017-11-03T19:36:23.425Z,19.50
2017-11-03T19:38:51.830Z,19.50
2017-11-03T19:41:20.293Z,19.50
2017-11-03T19:43:48.783Z,19.50
2017-11-03T19:46:17.156Z,19.50
2017-11-03T19:48:45.648Z,19.50
2017-11-03T19:51:14.423Z,19.50
2017-11-03T19:53:43.092Z,19.50
2017-11-03T19:56:11.536Z,19.50
2017-11-03T19:58:39.938Z,19.50
2017-11-03T20:01:08.341Z,19.50
2017-11-03T20:03:37.987Z,19.50
2017-11-03T20:06:06.329Z,19.50
2017-11-03T20:08:34.684Z,19.50
2017-11-03T20:11:03.049Z,19.50
2017-11-03T20:13:32.208Z,19.50
2017-11-03T20:16:00.560Z,19.50
2017-11-03T20:18:28.940Z,19.60
2017-11-03T20:20:57.321Z,19.60
2017-11-03T20:23:25.701Z,19.60
2017-11-03T20:25:54.142Z,19.60
2017-11-03T20:28:22.561Z,19.60
2017-11-03T20:30:51.904Z,19.60
2017-11-03T20:33:20.510Z,19.60
2017-11-03T20:35:48.841Z,19.60
2017-11-03T20:38:17.253Z,19.60
2017-11-03T20:40:46.510Z,19.60
2017-11-03T20:43:14.895Z,19.60
2017-11-03T20:45:43.275Z,19.60
2017-11-03T20:48:11.659Z,19.60
2017-11-03T20:50:40.219Z,19.70
2017-11-03T20:53:08.624Z,19.70
2017-11-03T20:55:37.734Z,19.70
2017-11-03T20:58:08.562Z,19.70
2017-11-03T21:00:37.965Z,19.70
2017-11-03T21:03:07.028Z,19.70
2017-11-03T21:05:36.191Z,19.70
2017-11-03T21:08:04.525Z,19.70
2017-11-03T21:10:33.130Z,19.80
2017-11-03T21:13:02.473Z,19.80
2017-11-03T21:15:31.650Z,19.80
2017-11-03T21:18:00.280Z,19.80
2017-11-03T21:20:29.508Z,19.80
2017-11-03T21:22:59.361Z,19.80
2017-11-03T21:25:28.512Z,19.80
2017-11-03T21:27:57.550Z,19.80
2017-11-03T21:30:25.971Z,19.80
2017-11-03T21:32:55.336Z,19.80
2017-11-03T21:35:23.751Z,19.80
2017-11-03T21:37:52.910Z,19.80
2017-11-03T21:40:23.600Z,19.90
2017-11-03T21:42:52.016Z,19.90
2017-11-03T21:45:21.254Z,19.80
2017-11-03T21:47:52.531Z,19.80
2017-11-03T21:50:20.952Z,19.90
2017-11-03T21:52:50.119Z,19.80
2017-11-03T21:55:19.244Z,19.80
2017-11-03T21:57:49.445Z,19.80
2017-11-03T22:00:19.287Z,19.90
2017-11-03T22:02:47.866Z,19.80
2017-11-03T22:05:16.579Z,19.90
2017-11-03T22:07:45.019Z,19.90
2017-11-03T22:10:13.701Z,19.80
2017-11-03T22:12:42.100Z,19.90
2017-11-03T22:15:11.331Z,19.90
2017-11-03T22:17:39.957Z,19.90
2017-11-03T22:20:08.496Z,19.90
2017-11-03T22:22:37.108Z,19.90
2017-11-03T22:25:05.844Z,19.90
2017-11-03T22:27:35.149Z,19.90
2017-11-03T22:30:04.420Z,19.90
2017-11-03T22:32:34.018Z,19.90
2017-11-03T22:35:04.581Z,19.90
2017-11-03T22:37:33.442Z,19.90
2017-11-03T22:40:03.691Z,19.90
2017-11-03T22:42:32.819Z,19.90
2017-11-03T22:45:01.712Z,19.90
2017-11-03T22:47:30.261Z,19.90
2017-11-03T22:49:58.639Z,19.90
2017-11-03T22:52:27.009Z,19.90
2017-11-03T22:54:56.169Z,19.90
2017-11-03T22:57:24.960Z,19.90
2017-11-03T22:59:53.659Z,19.90
2017-11-03T23:02:22.916Z,20.00
2017-11-03T23:04:51.416Z,19.90
2017-11-03T23:07:20.536Z,20.00
2017-11-03T23:09:49.043Z,20.00
2017-11-03T23:12:18.130Z,20.00
2017-11-03T23:14:47.803Z,19.90
2017-11-03T23:17:17.565Z,19.90
2017-11-03T23:19:46.872Z,19.90
2017-11-03T23:22:15.510Z,20.00
2017-11-03T23:24:44.422Z,20.00
2017-11-03T23:27:14.031Z,20.00
2017-11-03T23:29:44.179Z,20.00
2017-11-03T23:32:13.440Z,20.00
2017-11-03T23:34:42.511Z,20.00
2017-11-03T23:37:10.988Z,20.00
2017-11-03T23:39:40.195Z,20.00
2017-11-03T23:42:08.559Z,20.00
2017-11-03T23:44:36.930Z,20.00
2017-11-03T23:47:05.278Z,19.90
2017-11-03T23:49:34.093Z,19.90
2017-11-03T23:52:04.858Z,20.00
2017-11-03T23:54:34.238Z,20.00
2017-11-03T23:57:02.685Z,20.00
2017-11-03T23:59:31.020Z,20.00
